Time;durP1;ratioP1;P1;durP2;ratioP2;P2;SDS_P1;SDS_P2;PMS_P1;PMS_P2;Temp;Humidity;BMP_temperature;BMP_pressure;BME280_temperature;BME280_humidity;BME280_pressure;Samples;Min_cycle;Max_cycle;Signal;HPM_P1;HPM_P2
2022/06/21 00:00:33;;;;;;;9.20;5.75;;;;;;;25.44;56.85;100359.16;4933775;29;20050;-62
2022/06/21 00:03:24;;;;;;;12.38;5.50;;;;;;;25.79;55.76;100354.97;4933899;29;20054;-64
2022/06/21 00:06:29;;;;;;;16.13;6.95;;;;;;;25.52;57.27;100362.59;4933708;29;20415;-64
2022/06/21 00:09:14;;;;;;;;;;;;;;;25.42;57.52;100352.44;4896605;29;20059;-61
2022/06/21 00:11:59;;;;;;;12.00;7.65;;;;;;;25.34;57.53;100356.56;4897037;29;19916;-64
2022/06/21 00:14:44;;;;;;;15.27;8.50;;;;;;;25.36;57.66;100351.34;4912569;29;20047;-66
2022/06/21 00:17:29;;;;;;;12.90;9.00;;;;;;;25.33;57.63;100357.78;4914534;29;20048;-64
2022/06/21 00:20:20;;;;;;;12.55;7.90;;;;;;;25.43;57.08;100356.81;4915399;29;20059;-65
2022/06/21 00:23:06;;;;;;;15.77;8.95;;;;;;;25.40;57.23;100358.44;4915452;29;20051;-65
2022/06/21 00:25:51;;;;;;;13.07;7.80;;;;;;;25.56;56.71;100368.91;4915165;29;20408;-66
2022/06/21 00:28:37;;;;;;;13.90;6.60;;;;;;;25.95;54.97;100371.78;4913920;29;20052;-66
2022/06/21 00:31:29;;;;;;;12.73;6.93;;;;;;;26.01;55.10;100372.03;4917851;29;20055;-66
2022/06/21 00:34:19;;;;;;;8.18;7.20;;;;;;;25.70;56.49;100356.75;4912551;29;20047;-68
2022/06/21 00:37:04;;;;;;;13.70;6.93;;;;;;;25.60;56.63;100369.63;4918289;29;20055;-67
2022/06/21 00:39:51;;;;;;;12.10;7.47;;;;;;;25.23;57.97;100365.09;4911004;29;20064;-67
2022/06/21 00:42:38;;;;;;;10.57;6.25;;;;;;;25.55;56.87;100353.41;4920515;29;20538;-68
2022/06/21 00:45:34;;;;;;;15.65;7.05;;;;;;;25.75;56.44;100359.03;4918676;29;20043;-67
2022/06/21 00:48:37;;;;;;;14.40;7.45;;;;;;;25.93;55.66;100371.41;4899274;29;20051;-69
2022/06/21 00:51:39;;;;;;;10.65;6.85;;;;;;;26.02;55.32;100372.81;4918592;29;20063;-67
2022/06/21 00:54:33;;;;;;;10.65;6.25;;;;;;;26.03;55.14;100366.81;4917180;29;20129;-68
2022/06/21 00:57:23;;;;;;;11.60;7.88;;;;;;;26.09;55.10;100372.69;4922681;29;20062;-66
2022/06/21 01:00:29;;;;;;;9.68;7.53;;;;;;;26.21;54.37;100367.22;4917696;29;20059;-66
2022/06/21 01:03:19;;;;;;;11.80;6.97;;;;;;;26.21;54.70;100367.22;4917839;29;20048;-65
2022/06/21 01:06:11;;;;;;;9.15;5.38;;;;;;;26.07;54.84;100364.75;4918702;29;20059;-67
2022/06/21 01:09:04;;;;;;;12.52;6.15;;;;;;;26.17;54.38;100369.31;4917158;29;20051;-67
2022/06/21 01:12:18;;;;;;;14.63;6.68;;;;;;;26.14;54.64;100369.41;4917070;29;20404;-66
2022/06/21 01:15:08;;;;;;;11.82;6.20;;;;;;;26.14;54.68;100375.75;4920839;29;20531;-66
2022/06/21 01:17:57;;;;;;;13.38;7.63;;;;;;;26.22;54.36;100370.84;4918412;29;20051;-65
2022/06/21 01:20:47;;;;;;;12.70;7.07;;;;;;;26.22;54.21;100377.19;4935968;29;20101;-67
2022/06/21 01:23:45;;;;;;;12.27;6.05;;;;;;;26.23;54.28;100367.63;4936549;29;20050;-65
2022/06/21 01:26:37;;;;;;;12.65;6.88;;;;;;;26.26;53.77;100372.34;4936223;29;20047;-67
2022/06/21 01:29:25;;;;;;;14.63;6.00;;;;;;;26.05;54.66;100371.97;4931641;29;20051;-66
2022/06/21 01:32:10;;;;;;;12.23;7.63;;;;;;;26.06;54.83;100368.75;4935345;29;20043;-68
2022/06/21 01:34:55;;;;;;;40.92;7.20;;;;;;;26.05;54.76;100366.41;4918303;29;20415;-67
2022/06/21 01:37:41;;;;;;;42.97;9.50;;;;;;;26.00;55.10;100364.91;4915065;29;20064;-67
2022/06/21 01:40:31;;;;;;;16.75;7.97;;;;;;;25.98;55.02;100367.31;4933838;29;20055;-69
2022/06/21 01:43:21;;;;;;;10.80;6.25;;;;;;;25.96;55.32;100358.59;4915817;29;20565;-69
2022/06/21 01:46:10;;;;;;;10.35;5.97;;;;;;;26.05;54.80;100356.03;4921487;29;20087;-67
2022/06/21 01:49:03;;;;;;;8.98;5.55;;;;;;;26.09;54.37;100356.75;4897773;29;20055;-66
2022/06/21 01:51:54;;;;;;;6.63;5.30;;;;;;;26.14;53.85;100353.47;4898018;29;20056;-67
2022/06/21 01:54:44;;;;;;;10.50;6.38;;;;;;;26.25;53.67;100367.22;4912477;29;20051;-68
2022/06/21 01:57:30;;;;;;;17.33;6.30;;;;;;;26.28;53.75;100357.97;4922567;29;20051;-66
2022/06/21 02:00:15;;;;;;;7.68;5.50;;;;;;;26.28;53.44;100353.19;4916608;29;20059;-66
2022/06/21 02:03:08;;;;;;;13.77;6.53;;;;;;;26.13;54.38;100346.31;4916366;29;20051;-68
2022/06/21 02:05:56;;;;;;;15.32;6.90;;;;;;;26.12;54.30;100349.50;4918249;29;20133;-69
2022/06/21 02:08:54;;;;;;;16.48;6.70;;;;;;;26.06;54.27;100352.03;4920108;29;20423;-69
2022/06/21 02:11:43;;;;;;;10.23;5.88;;;;;;;26.07;54.23;100352.81;4916736;29;20043;-67
2022/06/21 02:14:28;;;;;;;11.48;5.38;;;;;;;26.09;53.95;100362.31;4918694;29;20051;-68
2022/06/21 02:17:32;;;;;;;13.07;6.75;;;;;;;26.13;54.22;100359.47;4918286;29;20051;-68
2022/06/21 02:20:27;;;;;;;8.05;5.60;;;;;;;26.15;53.88;100349.47;4909995;29;20055;-68
2022/06/21 02:23:15;;;;;;;11.77;6.30;;;;;;;26.15;54.07;100352.25;4950394;23;20047;-81
2022/06/21 02:26:01;;;;;;;16.33;7.20;;;;;;;26.25;53.26;100347.69;4969201;28;20050;-81
2022/06/21 02:28:46;;;;;;;11.25;5.35;;;;;;;26.01;53.85;100343.41;4957193;29;20074;-81
2022/06/21 02:31:31;;;;;;;10.55;6.22;;;;;;;25.93;54.60;100343.53;4955685;28;20055;-81
2022/06/21 02:34:32;;;;;;;14.95;7.18;;;;;;;25.83;54.65;100338.16;4920608;29;20405;-81
2022/06/21 02:37:17;;;;;;;13.93;6.00;;;;;;;25.86;54.51;100343.66;4922097;29;20051;-81
2022/06/21 02:40:06;;;;;;;19.77;7.32;;;;;;;26.04;53.87;100351.69;4933873;29;20066;-81
2022/06/21 02:42:56;;;;;;;18.75;6.18;;;;;;;26.07;53.92;100356.38;4937945;28;20067;-80
2022/06/21 02:46:00;;;;;;;135.00;28.58;;;;;;;26.08;53.85;100346.03;4940216;29;20058;-81
2022/06/21 02:48:53;;;;;;;91.13;25.10;;;;;;;26.44;52.56;100348.88;4953332;28;20505;-80
2022/06/21 02:51:53;;;;;;;71.43;17.67;;;;;;;26.77;52.08;100351.28;4938706;29;20039;-79
2022/06/21 02:54:45;;;;;;;49.78;13.15;;;;;;;26.88;51.50;100362.22;4902208;29;20052;-79
2022/06/21 02:57:37;;;;;;;20.40;7.40;;;;;;;27.02;51.17;100364.66;4901567;29;20036;-78
2022/06/21 03:00:23;;;;;;;14.52;5.90;;;;;;;26.98;51.08;100363.97;4931754;29;20532;-78
2022/06/21 03:03:19;;;;;;;15.68;6.25;;;;;;;27.03;51.07;100369.03;4920102;29;20055;-78
2022/06/21 03:06:08;;;;;;;17.55;6.25;;;;;;;27.03;51.27;100371.81;4938212;29;20055;-78
2022/06/21 03:08:56;;;;;;;12.02;5.75;;;;;;;27.04;50.83;100380.97;4938407;29;20067;-78
2022/06/21 03:11:45;;;;;;;14.93;5.53;;;;;;;27.06;50.95;100390.50;4927383;29;20054;-78
2022/06/21 03:14:33;;;;;;;11.73;4.68;;;;;;;27.10;50.52;100388.41;4927058;29;20055;-78
2022/06/21 03:17:23;;;;;;;15.15;5.32;;;;;;;27.04;51.16;100387.34;4931731;29;20038;-79
2022/06/21 03:20:16;;;;;;;11.13;5.35;;;;;;;27.09;50.69;100384.03;4928901;29;20050;-78
2022/06/21 03:23:02;;;;;;;12.50;6.20;;;;;;;27.05;51.12;100391.72;4937427;29;20054;-79
2022/06/21 03:25:54;;;;;;;9.27;6.50;;;;;;;27.03;51.09;100384.97;4954264;28;20054;-78
2022/06/21 03:28:43;;;;;;;16.33;7.05;;;;;;;27.05;50.98;100391.72;4937857;29;20532;-78
2022/06/21 03:31:33;;;;;;;12.10;7.80;;;;;;;26.81;51.20;100377.09;4925407;29;20407;-78
2022/06/21 03:34:22;;;;;;;20.80;7.38;;;;;;;26.54;51.86;100384.88;4919635;29;20059;-79
2022/06/21 03:37:07;;;;;;;13.02;6.03;;;;;;;26.46;52.83;100388.28;4920014;29;20071;-78
2022/06/21 03:43:10;;;;;;;14.47;7.00;;;;;;;26.02;54.11;100395.09;4913789;29;20044;-79
2022/06/21 03:45:58;;;;;;;15.82;6.63;;;;;;;25.75;54.69;100398.03;4931731;29;20047;-79
2022/06/21 03:48:50;;;;;;;13.77;6.13;;;;;;;25.76;54.56;100405.16;4939596;28;20055;-79
2022/06/21 03:51:40;;;;;;;10.43;6.57;;;;;;;25.72;54.49;100410.81;4920571;29;20052;-79
2022/06/21 03:54:47;;;;;;;11.15;7.07;;;;;;;25.78;54.48;100419.47;4919669;29;20051;-79
2022/06/21 03:57:35;;;;;;;14.07;6.55;;;;;;;25.73;54.46;100417.16;4925147;29;20051;-79
2022/06/21 04:00:20;;;;;;;16.30;7.18;;;;;;;25.71;54.55;100423.16;4922796;29;20441;-78
2022/06/21 04:03:19;;;;;;;13.13;6.65;;;;;;;25.78;54.48;100416.66;4932037;29;20106;-79
2022/06/21 04:06:31;;;;;;;19.42;8.45;;;;;;;25.24;56.29;100421.56;4923067;29;20040;-79
2022/06/21 04:09:42;;;;;;;18.85;8.00;;;;;;;25.27;56.38;100424.28;4928307;29;20070;-78
2022/06/21 04:12:33;;;;;;;23.83;8.40;;;;;;;25.48;55.43;100423.94;4919437;29;20059;-78
2022/06/21 04:15:27;;;;;;;17.88;8.30;;;;;;;25.18;56.85;100414.91;4928714;29;20059;-79
2022/06/21 04:18:23;;;;;;;16.92;7.22;;;;;;;25.49;55.67;100416.38;4932252;29;20043;-79
2022/06/21 04:21:18;;;;;;;9.45;6.93;;;;;;;25.41;55.67;100418.47;4917824;29;20129;-79
2022/06/21 04:24:23;;;;;;;17.15;7.20;;;;;;;25.69;55.28;100430.38;4928637;29;20070;-78
2022/06/21 04:27:18;;;;;;;22.20;7.90;;;;;;;25.88;54.52;100433.19;4940088;29;20075;-79
2022/06/21 04:30:17;;;;;;;13.55;6.88;;;;;;;25.63;55.87;100415.34;4939030;29;20051;-77
2022/06/21 04:33:12;;;;;;;14.23;6.05;;;;;;;25.91;54.83;100423.19;4938016;29;20050;-78
2022/06/21 04:36:16;;;;;;;11.95;6.03;;;;;;;26.12;54.21;100427.56;4920239;29;20048;-79
2022/06/21 04:39:10;;;;;;;29.20;8.77;;;;;;;26.16;54.16;100419.94;4919629;29;20058;-78
2022/06/21 04:42:03;;;;;;;23.13;6.22;;;;;;;26.26;53.78;100416.94;4920471;29;20051;-78
2022/06/21 04:45:05;;;;;;;23.40;7.80;;;;;;;26.41;53.23;100427.81;4919904;29;20051;-78
2022/06/21 04:48:17;;;;;;;18.75;8.68;;;;;;;26.22;53.81;100416.22;4933175;29;20050;-78
2022/06/21 04:51:08;;;;;;;25.85;9.18;;;;;;;26.36;53.50;100415.19;4938790;29;20046;-78
2022/06/21 04:54:04;;;;;;;26.30;8.93;;;;;;;26.41;53.65;100417.47;4922230;29;20039;-78
2022/06/21 04:57:07;;;;;;;15.57;8.30;;;;;;;26.67;52.77;100422.03;4927768;29;20055;-79
2022/06/21 04:59:57;;;;;;;15.50;9.18;;;;;;;26.63;53.98;100424.13;4956850;28;20535;-78
2022/06/21 05:02:50;;;;;;;28.58;7.75;;;;;;;26.73;53.53;100428.69;4925081;29;20051;-78
2022/06/21 05:05:37;;;;;;;33.92;9.30;;;;;;;27.01;52.50;100430.09;4934982;29;20046;-79
2022/06/21 05:08:24;;;;;;;19.45;8.88;;;;;;;27.28;52.05;100432.63;4933007;29;20079;-78
2022/06/21 05:11:12;;;;;;;17.40;8.43;;;;;;;27.31;51.80;100439.38;4921619;29;20051;-78
2022/06/21 05:13:59;;;;;;;15.00;8.10;;;;;;;27.32;51.93;100443.72;4947436;29;20051;-79
2022/06/21 05:16:45;;;;;;;103.68;15.85;;;;;;;26.98;52.71;100433.75;4937453;29;20076;-78
2022/06/21 05:19:33;;;;;;;356.13;31.90;;;;;;;26.69;54.49;100435.56;4911443;29;20043;-78
2022/06/21 05:22:35;;;;;;;39.05;17.50;;;;;;;26.18;56.16;100440.59;4915491;29;20044;-78
2022/06/21 05:25:23;;;;;;;34.17;14.18;;;;;;;26.10;57.30;100443.94;4924634;29;20040;-78
2022/06/21 05:28:28;;;;;;;23.10;15.20;;;;;;;26.07;58.37;100442.78;4921633;29;20409;-78
2022/06/21 05:31:21;;;;;;;18.67;15.27;;;;;;;25.88;58.38;100451.91;4928856;29;20051;-78
2022/06/21 05:34:23;;;;;;;18.00;16.10;;;;;;;25.90;58.40;100452.28;4941340;29;20405;-78
2022/06/21 05:37:29;;;;;;;25.02;14.07;;;;;;;26.56;56.03;100451.41;4936043;29;20520;-78
2022/06/21 05:40:24;;;;;;;19.48;14.20;;;;;;;25.94;58.04;100444.63;4928428;29;20052;-78
2022/06/21 05:43:15;;;;;;;22.67;16.08;;;;;;;25.89;59.05;100442.34;4925463;29;20044;-79
2022/06/21 05:46:02;;;;;;;19.88;14.45;;;;;;;26.12;57.78;100452.66;4928825;29;20035;-79
2022/06/21 05:48:47;;;;;;;20.52;13.50;;;;;;;26.28;57.41;100445.19;4938981;28;20414;-78
2022/06/21 05:51:33;;;;;;;25.30;16.48;;;;;;;26.11;57.76;100448.31;4940934;29;20509;-78
2022/06/21 05:54:23;;;;;;;23.25;13.88;;;;;;;26.49;56.34;100451.53;4937926;29;20056;-78
2022/06/21 05:57:13;;;;;;;23.15;16.05;;;;;;;26.28;57.27;100458.34;4922065;29;20040;-78
2022/06/21 06:00:02;;;;;;;26.02;15.63;;;;;;;26.20;57.36;100459.69;4930443;29;20056;-78
2022/06/21 06:02:53;;;;;;;20.88;15.73;;;;;;;26.11;58.19;100459.47;4923043;29;20060;-78
2022/06/21 06:05:38;;;;;;;25.90;13.10;;;;;;;26.48;56.33;100461.91;4922908;29;20056;-78
2022/06/21 06:08:35;;;;;;;18.10;11.82;;;;;;;26.54;55.77;100451.84;4928542;29;20047;-78
2022/06/21 06:11:57;;;;;;;21.75;12.65;;;;;;;26.25;56.93;100454.41;4937073;29;20040;-78
2022/06/21 06:14:45;;;;;;;23.73;13.63;;;;;;;26.62;56.21;100469.19;4932783;29;20417;-78
2022/06/21 06:17:51;;;;;;;17.95;13.93;;;;;;;26.87;55.85;100477.84;4934683;29;20490;-79
2022/06/21 06:21:05;;;;;;;19.25;13.45;;;;;;;27.12;54.48;100478.06;4933600;29;20044;-78
2022/06/21 06:23:58;;;;;;;28.85;15.73;;;;;;;26.85;55.69;100471.91;4940870;29;20052;-79
2022/06/21 06:26:46;;;;;;;16.63;14.13;;;;;;;26.79;55.38;100476.41;4940300;29;20521;-78
2022/06/21 06:29:41;;;;;;;22.27;11.98;;;;;;;26.66;56.08;100481.88;4938435;28;20048;-78
2022/06/21 06:32:35;;;;;;;38.28;11.05;;;;;;;27.00;53.96;100475.19;4929440;29;20044;-78
2022/06/21 06:35:24;;;;;;;23.67;10.68;;;;;;;27.14;54.09;100474.84;4931006;29;20047;-78
2022/06/21 06:38:13;;;;;;;15.98;11.35;;;;;;;27.59;52.68;100466.59;4946377;28;20044;-78
2022/06/21 06:41:23;;;;;;;29.05;12.38;;;;;;;27.54;52.99;100476.31;4940611;29;20048;-79
2022/06/21 06:44:11;;;;;;;17.83;9.38;;;;;;;28.09;51.59;100480.84;4934020;29;20303;-79
2022/06/21 06:46:59;;;;;;;19.77;9.18;;;;;;;28.41;50.45;100468.81;4932760;29;20055;-78
2022/06/21 06:49:56;;;;;;;18.17;7.55;;;;;;;28.31;50.84;100483.09;4943028;28;20067;-79
2022/06/21 06:52:49;;;;;;;17.10;9.50;;;;;;;28.15;51.00;100485.94;4950334;28;20055;-78
2022/06/21 06:55:44;;;;;;;13.77;7.78;;;;;;;28.09;51.39;100477.28;4939411;29;20066;-78
2022/06/21 06:58:39;;;;;;;11.45;6.40;;;;;;;28.01;50.79;100482.28;4926920;28;20051;-78
2022/06/21 07:01:39;;;;;;;;;;;;;;;27.92;51.30;100481.34;4924030;29;20039;-79
2022/06/21 07:04:28;;;;;;;13.88;6.57;;;;;;;27.87;50.62;100476.28;4901592;29;19915;-78
2022/06/21 07:07:21;;;;;;;14.70;8.00;;;;;;;27.98;50.79;100469.19;4901860;29;20044;-78
2022/06/21 07:10:14;;;;;;;12.32;6.20;;;;;;;27.93;51.23;100482.91;4902135;29;20055;-78
2022/06/21 07:12:59;;;;;;;11.73;6.80;;;;;;;27.96;51.07;100473.66;4926474;29;20058;-78
2022/06/21 07:15:47;;;;;;;22.42;7.85;;;;;;;27.89;51.06;100480.19;4938820;29;20051;-78
2022/06/21 07:18:44;;;;;;;25.02;8.00;;;;;;;27.96;50.53;100474.44;4935316;29;20046;-78
2022/06/21 07:21:29;;;;;;;18.63;8.00;;;;;;;28.00;50.46;100477.13;4940514;29;20050;-78
2022/06/21 07:24:18;;;;;;;21.55;7.25;;;;;;;28.16;49.97;100467.94;4932516;29;20051;-78
2022/06/21 07:27:08;;;;;;;17.23;7.28;;;;;;;28.11;49.91;100476.84;4943365;28;20047;-78
2022/06/21 07:30:07;;;;;;;19.13;7.60;;;;;;;28.17;49.88;100461.91;4938305;29;20051;-78
2022/06/21 07:33:03;;;;;;;12.40;7.00;;;;;;;28.28;49.69;100473.59;4954832;28;20047;-78
2022/06/21 07:35:52;;;;;;;22.30;8.25;;;;;;;28.27;49.63;100476.84;4935859;29;20428;-78
2022/06/21 07:38:40;;;;;;;18.65;5.60;;;;;;;28.26;49.58;100464.84;4941540;29;20047;-78
2022/06/21 07:41:30;;;;;;;14.73;5.68;;;;;;;28.33;49.36;100470.25;4935929;28;20059;-78
2022/06/21 07:44:29;;;;;;;19.83;7.03;;;;;;;28.27;49.04;100471.22;4926444;29;20535;-78
2022/06/21 07:47:21;;;;;;;16.58;6.35;;;;;;;28.45;48.65;100460.31;4939223;29;20047;-78
2022/06/21 07:50:17;;;;;;;19.60;7.30;;;;;;;28.56;48.66;100460.00;4953562;28;20050;-78
2022/06/21 07:53:09;;;;;;;23.02;7.90;;;;;;;28.47;49.02;100461.44;4954592;28;20055;-78
2022/06/21 07:56:15;;;;;;;25.00;7.13;;;;;;;28.36;49.29;100460.19;4935925;29;20070;-78
2022/06/21 07:59:09;;;;;;;36.90;8.55;;;;;;;28.43;49.01;100457.19;4937809;29;20051;-78
2022/06/21 08:08:57;;;;;;;16.80;4.90;;;;;;;28.38;48.45;100433.34;4919887;29;20055;-78
2022/06/21 08:11:44;;;;;;;19.63;5.70;;;;;;;28.27;48.66;100426.47;4920762;29;20043;-78
2022/06/21 08:14:34;;;;;;;10.52;4.50;;;;;;;28.46;48.00;100428.31;4939298;29;20074;-78
2022/06/21 08:17:42;;;;;;;10.55;4.57;;;;;;;28.35;48.65;100439.81;4939139;29;20063;-78
2022/06/21 08:20:39;;;;;;;16.38;5.28;;;;;;;28.23;48.82;100426.59;4929431;29;20046;-78
2022/06/21 08:23:42;;;;;;;12.68;4.40;;;;;;;28.23;48.83;100428.59;4954128;23;20055;-63
2022/06/21 08:26:42;;;;;;;9.80;4.65;;;;;;;28.26;47.94;100436.09;4922430;29;20059;-63
2022/06/21 08:29:35;;;;;;;11.68;4.90;;;;;;;28.37;48.11;100431.00;4919322;29;20051;-64
2022/06/21 08:32:43;;;;;;;9.77;4.95;;;;;;;28.40;47.53;100424.50;4914616;29;20067;-62
2022/06/21 08:35:36;;;;;;;13.35;4.30;;;;;;;28.35;47.72;100431.41;4914385;29;20047;-63
2022/06/21 08:38:40;;;;;;;9.10;4.18;;;;;;;28.19;48.17;100425.88;4923213;29;20113;-63
2022/06/21 08:41:55;;;;;;;14.00;5.07;;;;;;;28.20;48.12;100429.47;4914246;29;20051;-63
2022/06/21 08:48:57;;;;;;;7.75;3.55;;;;;;;28.19;47.73;100420.28;4916832;29;20063;-62
2022/06/21 08:52:01;;;;;;;10.45;4.53;;;;;;;28.02;47.61;100416.75;4915665;29;20055;-63
2022/06/21 08:55:05;;;;;;;6.07;3.50;;;;;;;28.09;47.45;100415.75;4918329;29;20510;-64
2022/06/21 08:58:27;;;;;;;10.43;4.40;;;;;;;28.24;47.02;100410.59;4916831;29;20311;-63
2022/06/21 09:01:27;;;;;;;10.07;2.97;;;;;;;28.25;47.43;100400.97;4925543;29;20439;-63
2022/06/21 09:04:41;;;;;;;8.85;4.20;;;;;;;28.26;47.26;100406.13;4914649;29;20066;-63
2022/06/21 09:07:43;;;;;;;8.45;3.25;;;;;;;28.40;46.76;100408.50;4912021;29;20043;-64
2022/06/21 09:11:00;;;;;;;15.85;3.72;;;;;;;28.39;46.50;100409.72;4917566;29;20063;-64
2022/06/21 09:14:02;;;;;;;3.53;2.90;;;;;;;28.29;47.12;100410.06;4917647;29;20047;-63
2022/06/21 09:17:14;;;;;;;13.63;4.65;;;;;;;28.48;46.24;100409.88;4917343;29;20523;-64
2022/06/21 09:20:20;;;;;;;12.82;4.18;;;;;;;28.47;46.41;100413.09;4917461;29;20523;-64
2022/06/21 09:23:14;;;;;;;16.10;4.38;;;;;;;28.32;46.66;100412.75;4919247;29;20051;-63
2022/06/21 09:26:19;;;;;;;13.20;3.90;;;;;;;28.31;46.71;100404.78;4917315;29;20118;-63
2022/06/21 09:29:21;;;;;;;10.77;3.22;;;;;;;28.33;46.45;100396.75;4916657;29;20423;-63
2022/06/21 09:32:15;;;;;;;11.23;3.92;;;;;;;28.33;46.63;100399.53;4917458;29;20059;-63
2022/06/21 09:35:25;;;;;;;9.30;3.47;;;;;;;28.67;45.74;100387.72;4918023;29;20055;-63
2022/06/21 09:38:16;;;;;;;10.93;3.40;;;;;;;28.57;45.87;100386.03;4923799;29;20067;-64
2022/06/21 09:41:20;;;;;;;12.40;3.25;;;;;;;28.48;45.95;100390.28;4917041;29;20047;-64
2022/06/21 09:44:19;;;;;;;12.68;3.40;;;;;;;28.56;46.10;100388.03;4917682;29;20047;-64
2022/06/21 09:47:26;;;;;;;7.05;3.20;;;;;;;28.54;46.25;100393.31;4924176;29;20074;-64
2022/06/21 09:50:44;;;;;;;4.40;3.10;;;;;;;28.53;45.74;100394.53;4922409;29;20051;-62
2022/06/21 09:54:06;;;;;;;17.77;4.32;;;;;;;28.70;44.90;100382.00;4912127;29;20221;-64
2022/06/21 09:56:56;;;;;;;14.80;3.72;;;;;;;28.86;45.24;100376.31;4915431;29;20047;-64
2022/06/21 10:00:02;;;;;;;7.80;3.33;;;;;;;28.91;44.19;100375.75;4913617;29;20051;-63
2022/06/21 10:03:21;;;;;;;5.80;2.58;;;;;;;28.84;45.12;100378.03;4919781;29;20047;-63
2022/06/21 10:06:37;;;;;;;7.22;2.92;;;;;;;28.88;44.98;100368.28;4927843;29;20429;-63
2022/06/21 10:09:43;;;;;;;8.90;3.20;;;;;;;28.77;44.55;100376.22;4925432;29;20043;-63
2022/06/21 10:12:41;;;;;;;5.55;3.08;;;;;;;28.73;45.06;100380.38;4923092;29;20067;-64
2022/06/21 10:16:04;;;;;;;8.85;3.22;;;;;;;28.81;44.72;100376.88;4925718;29;20059;-64
2022/06/21 10:18:55;;;;;;;4.22;3.25;;;;;;;28.86;44.76;100379.13;4932356;29;20070;-64
2022/06/21 10:22:27;;;;;;;16.55;3.63;;;;;;;28.99;44.19;100387.53;4931458;29;20564;-63
2022/06/21 10:25:47;;;;;;;6.47;3.15;;;;;;;29.05;43.99;100382.16;4906969;29;20125;-64
2022/06/21 10:29:05;;;;;;;9.45;3.38;;;;;;;29.07;44.19;100388.84;4911373;29;20051;-63
2022/06/21 10:32:12;;;;;;;6.35;3.60;;;;;;;29.66;41.68;100388.06;4931220;29;20059;-63
2022/06/21 10:35:28;;;;;;;13.68;2.88;;;;;;;30.08;40.57;100391.41;4920667;29;20043;-64
2022/06/21 10:38:23;;;;;;;14.07;3.00;;;;;;;30.37;38.03;100382.72;4915643;29;20051;-63
2022/06/21 10:42:46;;;;;;;12.50;2.95;;;;;;;30.56;38.30;100381.59;4915780;29;20538;-64
2022/06/21 10:45:28;;;;;;;40.10;5.70;;;;;;;30.74;38.61;100385.72;4915598;29;20074;-64
2022/06/21 10:48:31;;;;;;;14.88;2.85;;;;;;;30.91;38.95;100379.41;4908718;29;20067;-63
2022/06/21 10:51:16;;;;;;;10.18;2.85;;;;;;;31.07;38.89;100384.00;4915909;29;20055;-63
2022/06/21 10:54:27;;;;;;;9.82;3.03;;;;;;;31.17;38.52;100385.59;4916111;29;20044;-63
2022/06/21 10:57:48;;;;;;;11.98;2.95;;;;;;;31.10;36.70;100380.25;4909983;29;20051;-63
2022/06/21 11:04:43;;;;;;;11.23;4.35;;;;;;;31.37;36.35;100371.09;4915708;29;20047;-63
2022/06/21 11:07:49;;;;;;;11.95;2.60;;;;;;;31.41;37.36;100371.72;4914556;29;20055;-63
2022/06/21 11:10:56;;;;;;;7.22;2.55;;;;;;;31.56;36.55;100377.50;4911240;29;20137;-64
2022/06/21 11:14:10;;;;;;;11.20;2.75;;;;;;;31.67;37.47;100377.88;4923086;29;20047;-65
2022/06/21 11:17:04;;;;;;;18.58;3.65;;;;;;;31.65;36.91;100371.91;4915149;29;20137;-65
2022/06/21 11:20:16;;;;;;;13.73;3.10;;;;;;;31.64;37.86;100362.72;4915546;29;20060;-63
2022/06/21 11:23:15;;;;;;;13.23;3.38;;;;;;;31.67;36.70;100364.59;4907678;29;20063;-64
2022/06/21 11:26:10;;;;;;;12.77;3.53;;;;;;;31.79;36.90;100362.88;4915547;29;20106;-64
2022/06/21 11:29:14;;;;;;;13.23;3.20;;;;;;;31.79;36.34;100360.06;4926063;29;20050;-64
2022/06/21 11:31:59;;;;;;;7.18;2.95;;;;;;;31.77;36.72;100351.31;4923194;29;20063;-64
2022/06/21 11:35:13;;;;;;;9.60;2.90;;;;;;;31.90;36.79;100339.91;4912475;29;20059;-65
2022/06/21 11:38:16;;;;;;;8.73;3.25;;;;;;;32.06;36.10;100340.31;4914839;29;20523;-65
2022/06/21 11:41:07;;;;;;;10.25;3.22;;;;;;;32.15;35.60;100317.81;4915055;29;20404;-64
2022/06/21 11:44:00;;;;;;;235.85;13.23;;;;;;;32.23;35.47;100316.25;4915167;29;20063;-65
2022/06/21 11:47:03;;;;;;;9.95;3.15;;;;;;;32.22;35.51;100314.69;4915261;29;20048;-65
2022/06/21 11:49:55;;;;;;;11.23;2.83;;;;;;;32.38;35.02;100299.47;4914978;29;20047;-64
2022/06/21 11:52:41;;;;;;;12.00;3.53;;;;;;;32.49;34.81;100310.22;4914327;29;20055;-64
2022/06/21 11:55:39;;;;;;;15.73;3.05;;;;;;;32.60;34.72;100310.47;4914913;29;20075;-64
2022/06/21 11:58:31;;;;;;;9.40;3.75;;;;;;;32.65;36.07;100307.03;4914657;29;20055;-63
2022/06/21 12:01:31;;;;;;;10.98;2.75;;;;;;;32.74;35.81;100297.75;4908321;29;20051;-64
2022/06/21 12:04:42;;;;;;;18.30;3.25;;;;;;;32.74;35.14;100292.91;4913165;29;20050;-63
2022/06/21 12:07:32;;;;;;;12.07;2.70;;;;;;;32.80;34.46;100285.34;4912906;29;20399;-65
2022/06/21 12:10:28;;;;;;;9.38;2.63;;;;;;;32.82;35.61;100285.66;4915543;29;20526;-65
2022/06/21 12:13:28;;;;;;;9.07;2.67;;;;;;;32.83;34.81;100278.75;4914526;29;20052;-63
2022/06/21 12:16:36;;;;;;;11.02;3.10;;;;;;;32.87;35.24;100279.34;4912053;29;20095;-65
2022/06/21 12:19:28;;;;;;;11.25;2.20;;;;;;;32.74;34.83;100287.25;4915818;29;20522;-66
2022/06/21 12:22:28;;;;;;;10.70;2.80;;;;;;;32.80;35.40;100287.41;4917038;29;20055;-63
2022/06/21 12:25:17;;;;;;;12.50;3.10;;;;;;;32.70;34.18;100285.88;4914887;29;20051;-65
2022/06/21 12:28:11;;;;;;;30.83;5.28;;;;;;;32.79;35.18;100286.63;4914275;29;20055;-64
2022/06/21 12:31:01;;;;;;;21.00;3.35;;;;;;;32.80;34.02;100290.22;4912821;29;20051;-63
2022/06/21 12:33:50;;;;;;;21.48;4.18;;;;;;;32.85;34.77;100284.69;4916982;29;20055;-65
2022/06/21 12:36:53;;;;;;;18.08;3.80;;;;;;;32.69;34.97;100290.75;4918152;29;20055;-65
2022/06/21 12:40:15;;;;;;;11.27;3.05;;;;;;;32.83;33.65;100275.94;4918046;29;20047;-65
2022/06/21 12:43:17;;;;;;;11.55;3.83;;;;;;;32.85;33.56;100279.06;4917717;29;20055;-63
2022/06/21 12:46:18;;;;;;;24.10;2.90;;;;;;;32.93;34.26;100282.28;4917521;29;20051;-64
2022/06/21 12:49:20;;;;;;;11.77;3.97;;;;;;;32.85;34.83;100287.53;4917157;29;20043;-64
2022/06/21 12:52:12;;;;;;;10.63;3.15;;;;;;;32.76;34.49;100281.94;4917063;29;20070;-64
2022/06/21 12:55:15;;;;;;;10.65;3.83;;;;;;;32.79;34.11;100288.66;4918781;29;20043;-63
2022/06/21 12:58:21;;;;;;;16.98;3.90;;;;;;;32.91;33.23;100282.00;4923160;29;20063;-64
2022/06/21 13:01:18;;;;;;;9.40;2.85;;;;;;;33.06;33.44;100268.75;4934591;29;20064;-63
2022/06/21 13:04:22;;;;;;;19.25;4.00;;;;;;;32.99;32.49;100264.25;4929015;29;20408;-63
2022/06/21 13:07:25;;;;;;;11.75;2.83;;;;;;;32.91;32.73;100277.16;4918825;29;20064;-64
2022/06/21 13:10:42;;;;;;;14.43;3.25;;;;;;;32.83;33.94;100275.94;4918109;29;20043;-65
2022/06/21 13:13:43;;;;;;;15.82;4.00;;;;;;;32.69;33.67;100279.47;4917152;29;20063;-64
2022/06/21 13:16:31;;;;;;;6.60;2.45;;;;;;;32.68;32.85;100278.69;4919034;29;20128;-65
2022/06/21 13:19:28;;;;;;;23.13;3.50;;;;;;;32.56;34.02;100278.91;4917008;29;20055;-65
2022/06/21 13:22:47;;;;;;;13.13;2.60;;;;;;;32.74;33.34;100281.63;4916545;29;20062;-63
2022/06/21 13:25:39;;;;;;;10.43;2.33;;;;;;;32.69;32.82;100282.28;4913049;29;20071;-64
2022/06/21 13:28:53;;;;;;;9.82;2.50;;;;;;;32.67;33.70;100279.16;4916619;29;20063;-64
2022/06/21 13:31:46;;;;;;;10.50;2.55;;;;;;;32.61;32.42;100289.50;4924968;29;20051;-63
2022/06/21 13:34:40;;;;;;;10.55;3.03;;;;;;;32.63;32.58;100289.78;4923035;29;20419;-64
2022/06/21 13:37:35;;;;;;;49.20;4.35;;;;;;;32.72;33.58;100297.44;4919940;29;20055;-63
2022/06/21 13:40:27;;;;;;;18.20;2.88;;;;;;;32.70;33.54;100295.13;4913696;29;20039;-65
2022/06/21 13:43:25;;;;;;;40.97;4.40;;;;;;;32.68;32.78;100277.91;4916552;29;20071;-65
2022/06/21 13:46:20;;;;;;;17.38;2.70;;;;;;;32.62;31.26;100279.78;4924211;29;20083;-64
2022/06/21 13:49:20;;;;;;;7.80;2.28;;;;;;;32.48;32.97;100281.28;4935492;29;20051;-65